Time;durP1;ratioP1;P1;durP2;ratioP2;P2;SDS_P1;SDS_P2;PMS_P1;PMS_P2;Temp;Humidity;BMP_temperature;BMP_pressure;BME280_temperature;BME280_humidity;BME280_pressure;Samples;Min_cycle;Max_cycle;Signal;HPM_P1;HPM_P2
2022/08/12 00:44:22;;;;;;;2.88;2.08;;;;;;;;;;4476182;28;20034;-66
2022/08/12 00:47:03;;;;;;;2.25;2.05;;;;;;;;;;4476285;28;20070;-66
2022/08/12 00:49:15;;;;;;;3.50;2.60;;;;;;;;;;4452276;28;20335;-66
2022/08/12 00:52:05;;;;;;;2.40;2.20;;;;;;;;;;4475996;28;21529;-66
2022/08/12 00:53:58;;;;;;;2.33;2.13;;;;;;;;;;4476399;28;20038;-67
2022/08/12 00:56:09;;;;;;;3.05;2.35;;;;;;;;;;4475055;28;20034;-67
2022/08/12 00:58:23;;;;;;;2.47;2.28;;;;;;;;;;4458805;28;20034;-67
2022/08/12 01:00:34;;;;;;;2.45;2.25;;;;;;;;;;4475953;28;20042;-66
2022/08/12 01:02:47;;;;;;;2.72;2.50;;;;;;;;;;4474721;28;20051;-67
2022/08/12 01:12:37;;;;;;;3.00;2.50;;;;;;;;;;4475213;28;20518;-66
2022/08/12 01:14:47;;;;;;;2.50;2.10;;;;;;;;;;4474169;28;20026;-66
2022/08/12 01:16:58;;;;;;;2.42;2.22;;;;;;;;;;4476983;28;20045;-66
2022/08/12 01:19:11;;;;;;;2.58;2.30;;;;;;;;;;4476251;28;20031;-66
2022/08/12 01:21:25;;;;;;;2.25;2.05;;;;;;;;;;4474955;28;20026;-66
2022/08/12 01:23:54;;;;;;;2.72;2.40;;;;;;;;;;4474864;28;20069;-66
2022/08/12 01:26:07;;;;;;;2.38;2.10;;;;;;;;;;4467227;28;20046;-66
2022/08/12 01:28:19;;;;;;;2.53;2.20;;;;;;;;;;4467574;28;20045;-65
2022/08/12 01:30:32;;;;;;;2.40;2.20;;;;;;;;;;4474951;28;20082;-65
2022/08/12 01:32:46;;;;;;;2.20;1.90;;;;;;;;;;4459906;28;20034;-66
2022/08/12 01:35:04;;;;;;;2.85;2.17;;;;;;;;;;4458461;28;20492;-66
2022/08/12 01:37:15;;;;;;;2.50;2.25;;;;;;;;;;4444166;28;20031;-66
2022/08/12 01:39:31;;;;;;;2.33;2.08;;;;;;;;;;4462382;28;20039;-66
2022/08/12 01:41:49;;;;;;;3.03;2.35;;;;;;;;;;4473095;28;20046;-66
2022/08/12 01:44:01;;;;;;;2.42;2.20;;;;;;;;;;4476502;28;20204;-65
2022/08/12 01:46:15;;;;;;;2.70;2.33;;;;;;;;;;4473809;28;20081;-65
2022/08/12 01:48:56;;;;;;;3.67;2.15;;;;;;;;;;4460635;28;20113;-65
2022/08/12 01:51:39;;;;;;;2.67;2.30;;;;;;;;;;4453031;28;20046;-65
2022/08/12 01:54:03;;;;;;;2.50;2.30;;;;;;;;;;4474490;28;20035;-65
2022/08/12 01:56:14;;;;;;;3.10;2.50;;;;;;;;;;4462835;28;20658;-65
2022/08/12 02:01:08;;;;;;;2.50;2.25;;;;;;;;;;4454527;28;20035;-65
2022/08/12 02:03:25;;;;;;;2.88;2.25;;;;;;;;;;4474708;28;20133;-66
2022/08/12 02:11:38;;;;;;;2.65;2.10;;;;;;;;;;4463983;28;20330;-65
2022/08/12 02:14:09;;;;;;;2.92;2.65;;;;;;;;;;4474751;28;20117;-65
2022/08/12 02:16:45;;;;;;;2.85;2.60;;;;;;;;;;4466337;28;20039;-64
2022/08/12 02:19:33;;;;;;;3.20;2.42;;;;;;;;;;4477057;28;20034;-65
2022/08/12 02:21:55;;;;;;;3.40;2.17;;;;;;;;;;4475453;28;20909;-65
2022/08/12 02:24:07;;;;;;;2.47;2.10;;;;;;;;;;4458439;28;20722;-66
2022/08/12 02:26:19;;;;;;;2.55;2.20;;;;;;;;;;4457215;28;20653;-65
2022/08/12 02:28:29;;;;;;;2.60;2.40;;;;;;;;;;4458678;28;20678;-66
2022/08/12 02:30:41;;;;;;;2.85;2.40;;;;;;;;;;4462594;28;20035;-66
2022/08/12 02:32:53;;;;;;;2.42;2.20;;;;;;;;;;4463698;28;20105;-66
2022/08/12 02:35:06;;;;;;;2.80;2.20;;;;;;;;;;4456127;28;20074;-67
2022/08/12 02:37:17;;;;;;;3.38;2.40;;;;;;;;;;4477912;28;20038;-68
2022/08/12 02:39:30;;;;;;;2.95;2.20;;;;;;;;;;4456929;28;20039;-66
2022/08/12 02:41:45;;;;;;;2.75;2.40;;;;;;;;;;4461591;28;20047;-67
2022/08/12 02:43:59;;;;;;;2.70;2.27;;;;;;;;;;4474120;28;20618;-66
2022/08/12 02:46:11;;;;;;;3.10;2.50;;;;;;;;;;4473588;28;20680;-66
2022/08/12 02:48:33;;;;;;;4.35;2.53;;;;;;;;;;4474759;28;20039;-66
2022/08/12 02:50:49;;;;;;;2.50;2.30;;;;;;;;;;4474479;28;20381;-66
2022/08/12 02:53:02;;;;;;;2.63;2.10;;;;;;;;;;4461309;28;20636;-66
2022/08/12 02:55:16;;;;;;;2.85;2.50;;;;;;;;;;4473181;28;20041;-66
2022/08/12 02:57:27;;;;;;;2.33;2.10;;;;;;;;;;4466851;28;20082;-66
2022/08/12 02:59:38;;;;;;;2.53;2.33;;;;;;;;;;4459194;28;20561;-66
2022/08/12 03:01:54;;;;;;;2.55;2.20;;;;;;;;;;4459713;28;20074;-66
2022/08/12 03:04:06;;;;;;;2.83;2.40;;;;;;;;;;4452092;28;20115;-66
2022/08/12 03:06:21;;;;;;;2.78;2.50;;;;;;;;;;4452817;28;20054;-65
2022/08/12 03:08:36;;;;;;;2.42;2.10;;;;;;;;;;4474945;28;20031;-66
2022/08/12 03:10:48;;;;;;;3.10;2.58;;;;;;;;;;4473876;28;20632;-66
2022/08/12 03:12:59;;;;;;;2.47;2.28;;;;;;;;;;4465926;28;20491;-64
2022/08/12 03:15:16;;;;;;;3.08;2.60;;;;;;;;;;4460278;28;20044;-64
2022/08/12 03:17:42;;;;;;;2.40;2.20;;;;;;;;;;4474885;28;20042;-64
2022/08/12 03:19:53;;;;;;;3.22;2.30;;;;;;;;;;4463609;28;20047;-64
2022/08/12 03:22:13;;;;;;;3.13;2.40;;;;;;;;;;4474946;28;20604;-65
2022/08/12 03:24:26;;;;;;;3.30;2.70;;;;;;;;;;4461023;28;20108;-64
2022/08/12 03:26:36;;;;;;;3.47;2.28;;;;;;;;;;4475122;28;20132;-64
2022/08/12 03:28:56;;;;;;;4.20;2.40;;;;;;;;;;4473448;28;20045;-64
2022/08/12 03:31:08;;;;;;;3.35;2.60;;;;;;;;;;4457953;28;20818;-64
2022/08/12 03:33:19;;;;;;;2.90;2.60;;;;;;;;;;4456799;28;20095;-64
2022/08/12 03:35:32;;;;;;;3.05;2.50;;;;;;;;;;4466992;28;20198;-65
2022/08/12 03:37:44;;;;;;;2.42;2.22;;;;;;;;;;4473306;28;20122;-66
2022/08/12 03:39:54;;;;;;;2.78;2.58;;;;;;;;;;4457110;28;20035;-65
2022/08/12 03:42:24;;;;;;;2.60;2.40;;;;;;;;;;4466706;28;20507;-64
2022/08/12 04:02:29;;;;;;;2.88;2.40;;;;;;;;;;4474015;28;20053;-65
2022/08/12 04:04:43;;;;;;;2.50;2.30;;;;;;;;;;4452080;28;20653;-65
2022/08/12 04:06:54;;;;;;;2.72;2.53;;;;;;;;;;4473250;28;20122;-62
2022/08/12 04:09:05;;;;;;;2.92;2.60;;;;;;;;;;4462801;28;20039;-62
2022/08/12 04:13:47;;;;;;;2.50;2.30;;;;;;;;;;4477589;28;20053;-63
2022/08/12 04:16:01;;;;;;;2.75;2.55;;;;;;;;;;4474827;28;20030;-63
2022/08/12 04:18:14;;;;;;;2.78;2.58;;;;;;;;;;4478112;28;20077;-64
2022/08/12 04:20:25;;;;;;;2.97;2.50;;;;;;;;;;4464539;28;20640;-64
2022/08/12 04:22:37;;;;;;;3.08;2.72;;;;;;;;;;4476301;28;20092;-64
2022/08/12 04:24:48;;;;;;;2.90;2.50;;;;;;;;;;4462951;28;20605;-64
2022/08/12 04:26:59;;;;;;;2.88;2.58;;;;;;;;;;4462998;28;20049;-64
2022/08/12 04:29:09;;;;;;;2.60;2.40;;;;;;;;;;4476351;28;20059;-64
2022/08/12 04:31:29;;;;;;;3.08;2.70;;;;;;;;;;4464579;28;20042;-64
2022/08/12 04:33:41;;;;;;;3.40;2.70;;;;;;;;;;4465951;28;20023;-63
2022/08/12 04:35:52;;;;;;;2.78;2.47;;;;;;;;;;4458343;28;20034;-64
2022/08/12 04:38:04;;;;;;;2.83;2.50;;;;;;;;;;4474877;28;20605;-64
2022/08/12 04:40:15;;;;;;;3.60;2.90;;;;;;;;;;4475911;28;20590;-64
2022/08/12 04:42:26;;;;;;;3.22;2.67;;;;;;;;;;4475597;28;20069;-64
2022/08/12 04:44:36;;;;;;;3.13;2.50;;;;;;;;;;4475013;28;20035;-64
2022/08/12 04:46:47;;;;;;;2.85;2.45;;;;;;;;;;4475904;28;20434;-63
2022/08/12 04:48:59;;;;;;;3.10;2.70;;;;;;;;;;4473567;28;20159;-64
2022/08/12 04:51:10;;;;;;;3.05;2.60;;;;;;;;;;4463490;28;20037;-64
2022/08/12 04:53:20;;;;;;;3.13;2.60;;;;;;;;;;4490671;28;20153;-64
2022/08/12 04:55:33;;;;;;;3.15;2.75;;;;;;;;;;4462711;28;20022;-64
2022/08/12 04:57:43;;;;;;;2.95;2.60;;;;;;;;;;4475651;28;20039;-64
2022/08/12 04:59:54;;;;;;;2.95;2.65;;;;;;;;;;4463543;28;20038;-64
2022/08/12 05:02:04;;;;;;;3.10;2.60;;;;;;;;;;4464312;28;20054;-64
2022/08/12 05:04:17;;;;;;;2.65;2.45;;;;;;;;;;4476229;28;20037;-64
2022/08/12 05:06:28;;;;;;;2.95;2.65;;;;;;;;;;4475597;28;20573;-64
2022/08/12 05:08:38;;;;;;;3.13;2.83;;;;;;;;;;4476398;28;20030;-64
2022/08/12 05:10:49;;;;;;;4.03;2.67;;;;;;;;;;4474493;28;20035;-64
2022/08/12 05:13:02;;;;;;;2.90;2.60;;;;;;;;;;4476651;28;20031;-64
2022/08/12 05:15:12;;;;;;;3.80;2.80;;;;;;;;;;4476208;28;20031;-64
2022/08/12 05:17:24;;;;;;;3.47;2.58;;;;;;;;;;4464626;28;20046;-64
2022/08/12 05:19:35;;;;;;;2.90;2.55;;;;;;;;;;4474655;28;20031;-64
2022/08/12 05:21:46;;;;;;;3.35;2.70;;;;;;;;;;4473967;28;20051;-64
2022/08/12 05:23:56;;;;;;;3.20;2.72;;;;;;;;;;4475580;28;20030;-63
2022/08/12 05:26:07;;;;;;;2.95;2.63;;;;;;;;;;4465579;28;20174;-64
2022/08/12 05:28:18;;;;;;;2.60;2.40;;;;;;;;;;4475260;28;20444;-65
2022/08/12 05:30:34;;;;;;;4.35;2.42;;;;;;;;;;4476093;28;20027;-64
2022/08/12 05:32:45;;;;;;;3.13;2.50;;;;;;;;;;4476028;28;20162;-64
2022/08/12 05:34:55;;;;;;;3.50;3.03;;;;;;;;;;4473819;28;20097;-64
2022/08/12 05:37:06;;;;;;;3.03;2.50;;;;;;;;;;4475649;28;20069;-64
2022/08/12 05:39:16;;;;;;;3.65;2.60;;;;;;;;;;4474406;28;20039;-64
2022/08/12 05:41:29;;;;;;;3.03;2.72;;;;;;;;;;4476072;28;20046;-64
2022/08/12 05:43:40;;;;;;;3.60;2.70;;;;;;;;;;4473937;28;20097;-64
2022/08/12 05:45:50;;;;;;;4.32;2.78;;;;;;;;;;4475515;28;20029;-64
2022/08/12 05:48:01;;;;;;;3.38;2.50;;;;;;;;;;4476235;28;20043;-64
2022/08/12 05:50:11;;;;;;;2.70;2.50;;;;;;;;;;4474845;28;20214;-64
2022/08/12 05:52:22;;;;;;;3.08;2.70;;;;;;;;;;4474974;28;20045;-64
2022/08/12 05:54:33;;;;;;;3.10;2.70;;;;;;;;;;4473945;28;20057;-64
2022/08/12 05:56:44;;;;;;;2.65;2.42;;;;;;;;;;4475019;28;20173;-64
2022/08/12 05:58:55;;;;;;;3.20;2.38;;;;;;;;;;4474161;28;20129;-62
2022/08/12 06:01:06;;;;;;;2.42;2.20;;;;;;;;;;4464954;28;20035;-63
2022/08/12 06:03:16;;;;;;;2.53;2.15;;;;;;;;;;4474079;28;20406;-64
2022/08/12 06:05:27;;;;;;;2.60;2.13;;;;;;;;;;4458683;28;20043;-64
2022/08/12 06:07:44;;;;;;;2.28;2.08;;;;;;;;;;4475423;28;20031;-64
2022/08/12 06:09:55;;;;;;;2.63;2.17;;;;;;;;;;4474013;28;20035;-64
2022/08/12 06:12:06;;;;;;;3.17;2.30;;;;;;;;;;4459220;28;20035;-66
2022/08/12 06:14:16;;;;;;;2.75;2.30;;;;;;;;;;4474711;28;20030;-63
2022/08/12 06:16:27;;;;;;;2.50;2.28;;;;;;;;;;4472932;28;20039;-64
2022/08/12 06:18:40;;;;;;;3.58;2.42;;;;;;;;;;4475697;28;20034;-64
2022/08/12 06:20:52;;;;;;;2.50;2.30;;;;;;;;;;4487932;28;20039;-64
2022/08/12 06:23:03;;;;;;;2.30;2.08;;;;;;;;;;4461819;28;20030;-64
2022/08/12 06:25:17;;;;;;;2.10;1.90;;;;;;;;;;4458087;28;20722;-65
2022/08/12 06:27:27;;;;;;;3.38;2.00;;;;;;;;;;4449644;28;20039;-64
2022/08/12 06:29:38;;;;;;;3.88;2.10;;;;;;;;;;4458511;28;20591;-65
2022/08/12 06:31:52;;;;;;;2.50;2.28;;;;;;;;;;4475209;28;20442;-64
2022/08/12 06:34:02;;;;;;;2.85;2.15;;;;;;;;;;4474168;28;20042;-65
2022/08/12 06:36:16;;;;;;;2.33;2.13;;;;;;;;;;4461188;28;20039;-65
2022/08/12 06:38:27;;;;;;;2.78;2.30;;;;;;;;;;4474418;28;20113;-67
2022/08/12 06:43:07;;;;;;;4.10;2.22;;;;;;;;;;4463230;28;20040;-64
2022/08/12 06:45:18;;;;;;;2.20;2.00;;;;;;;;;;4472223;28;20499;-64
2022/08/12 06:47:31;;;;;;;2.38;2.17;;;;;;;;;;4473454;28;20066;-65
2022/08/12 06:49:43;;;;;;;2.40;2.10;;;;;;;;;;4473664;28;20068;-65
2022/08/12 06:51:54;;;;;;;2.40;2.10;;;;;;;;;;4474826;28;20035;-65
2022/08/12 06:54:04;;;;;;;2.58;2.00;;;;;;;;;;4441295;28;20044;-65
2022/08/12 06:56:15;;;;;;;1.95;1.85;;;;;;;;;;4473537;28;20754;-65
2022/08/12 06:58:31;;;;;;;2.30;2.10;;;;;;;;;;4458557;28;20903;-65
2022/08/12 07:00:45;;;;;;;2.20;2.00;;;;;;;;;;4474155;28;20038;-66
2022/08/12 07:02:56;;;;;;;3.05;1.90;;;;;;;;;;4457649;28;20059;-66
2022/08/12 07:05:07;;;;;;;2.00;1.80;;;;;;;;;;4466471;28;20026;-66
2022/08/12 07:07:17;;;;;;;2.20;2.00;;;;;;;;;;4473317;28;20038;-66
2022/08/12 07:09:28;;;;;;;3.13;2.08;;;;;;;;;;4474485;28;20116;-66
2022/08/12 07:11:43;;;;;;;2.17;1.98;;;;;;;;;;4470750;28;20031;-66
2022/08/12 07:13:53;;;;;;;1.90;1.80;;;;;;;;;;4473257;28;20619;-65
2022/08/12 07:16:05;;;;;;;2.80;2.05;;;;;;;;;;4472944;28;20114;-65
2022/08/12 07:18:18;;;;;;;1.88;1.67;;;;;;;;;;4473228;28;20038;-65
2022/08/12 07:20:30;;;;;;;2.13;1.80;;;;;;;;;;4472631;28;20751;-65
2022/08/12 07:22:40;;;;;;;3.00;1.98;;;;;;;;;;4463680;28;20051;-65
2022/08/12 07:25:29;;;;;;;2.90;2.00;;;;;;;;;;4472697;28;20027;-65
2022/08/12 07:27:22;;;;;;;2.70;1.70;;;;;;;;;;4474637;28;20093;-65
2022/08/12 07:29:33;;;;;;;2.40;2.20;;;;;;;;;;4473861;28;20082;-65
2022/08/12 07:31:43;;;;;;;2.05;1.85;;;;;;;;;;4458652;28;21283;-65
2022/08/12 07:33:55;;;;;;;2.17;1.88;;;;;;;;;;4474399;28;20039;-65
2022/08/12 07:36:09;;;;;;;2.42;1.90;;;;;;;;;;4473305;28;20138;-66
2022/08/12 07:38:29;;;;;;;2.50;1.80;;;;;;;;;;4472308;28;20065;-65
2022/08/12 07:40:40;;;;;;;1.90;1.65;;;;;;;;;;4456718;28;20035;-66
2022/08/12 07:42:51;;;;;;;2.30;2.00;;;;;;;;;;4472824;28;20042;-65
2022/08/12 07:45:03;;;;;;;2.00;1.80;;;;;;;;;;4475759;28;20043;-65
2022/08/12 07:47:14;;;;;;;2.60;1.80;;;;;;;;;;4474458;28;20130;-66
2022/08/12 07:49:26;;;;;;;2.28;1.63;;;;;;;;;;4475266;28;20054;-65
2022/08/12 07:51:37;;;;;;;3.10;2.42;;;;;;;;;;4475479;28;20807;-65
2022/08/12 07:53:48;;;;;;;2.05;1.77;;;;;;;;;;4464093;28;20031;-66
2022/08/12 07:55:59;;;;;;;2.10;1.80;;;;;;;;;;4476372;28;20125;-65
2022/08/12 07:58:09;;;;;;;2.05;1.80;;;;;;;;;;4475492;28;20035;-65
2022/08/12 08:00:20;;;;;;;2.10;1.90;;;;;;;;;;4474514;28;20543;-63
2022/08/12 08:02:35;;;;;;;2.00;1.80;;;;;;;;;;4477158;28;20396;-64
2022/08/12 08:04:56;;;;;;;2.25;1.70;;;;;;;;;;4463450;28;20129;-64
2022/08/12 08:07:09;;;;;;;2.45;1.77;;;;;;;;;;4441651;28;20040;-65
2022/08/12 08:09:22;;;;;;;2.20;1.80;;;;;;;;;;4476017;28;20043;-64
2022/08/12 08:14:03;;;;;;;1.77;1.60;;;;;;;;;;4454281;28;20038;-64
2022/08/12 08:16:14;;;;;;;1.90;1.50;;;;;;;;;;4451732;28;20853;-65
2022/08/12 08:18:24;;;;;;;2.10;1.90;;;;;;;;;;4458767;28;20043;-64
2022/08/12 08:20:41;;;;;;;2.15;1.77;;;;;;;;;;4475090;28;20109;-64
2022/08/12 08:22:52;;;;;;;2.42;1.70;;;;;;;;;;4474440;28;20608;-65
2022/08/12 08:25:04;;;;;;;2.25;1.65;;;;;;;;;;4463404;28;20039;-65
2022/08/12 08:27:14;;;;;;;2.13;1.80;;;;;;;;;;4476796;28;20830;-66
2022/08/12 08:29:25;;;;;;;2.20;1.70;;;;;;;;;;4476660;28;20053;-64
2022/08/12 08:31:35;;;;;;;1.77;1.58;;;;;;;;;;4458656;28;20133;-65
2022/08/12 08:33:46;;;;;;;2.53;1.80;;;;;;;;;;4475645;28;20619;-66
2022/08/12 08:35:56;;;;;;;1.90;1.70;;;;;;;;;;4475203;28;20559;-64
2022/08/12 08:38:10;;;;;;;1.83;1.63;;;;;;;;;;4474299;28;20098;-64
2022/08/12 08:42:57;;;;;;;2.35;2.13;;;;;;;;;;4472141;28;20055;-64
2022/08/12 08:45:11;;;;;;;2.63;2.28;;;;;;;;;;4476470;28;20042;-64
2022/08/12 08:47:22;;;;;;;2.25;2.05;;;;;;;;;;4473515;28;20038;-65
2022/08/12 08:49:34;;;;;;;2.60;2.13;;;;;;;;;;4475738;28;20031;-64
2022/08/12 08:51:45;;;;;;;2.38;1.90;;;;;;;;;;4463668;28;20146;-65
2022/08/12 08:53:58;;;;;;;2.20;2.00;;;;;;;;;;4474539;28;20063;-65
2022/08/12 08:56:10;;;;;;;2.30;2.10;;;;;;;;;;4474785;28;20038;-65
2022/08/12 08:58:21;;;;;;;2.30;2.10;;;;;;;;;;4474281;28;20042;-65
2022/08/12 09:00:31;;;;;;;3.05;2.10;;;;;;;;;;4460232;28;20027;-65
2022/08/12 09:02:42;;;;;;;2.22;2.03;;;;;;;;;;4467827;28;20093;-64
2022/08/12 09:04:53;;;;;;;2.15;1.95;;;;;;;;;;4462840;28;20178;-64
2022/08/12 09:07:03;;;;;;;1.83;1.73;;;;;;;;;;4475074;28;20244;-64
2022/08/12 09:09:16;;;;;;;2.08;1.83;;;;;;;;;;4476610;28;20030;-64
2022/08/12 09:13:56;;;;;;;2.00;1.88;;;;;;;;;;4473392;28;20050;-64
2022/08/12 09:16:07;;;;;;;2.17;2.00;;;;;;;;;;4472967;28;20050;-64
2022/08/12 09:18:17;;;;;;;2.40;2.20;;;;;;;;;;4475560;28;20061;-64
2022/08/12 09:20:32;;;;;;;2.15;1.98;;;;;;;;;;4476824;28;20093;-64
2022/08/12 09:22:43;;;;;;;2.22;2.03;;;;;;;;;;4473472;28;20155;-64
2022/08/12 09:24:53;;;;;;;3.22;2.13;;;;;;;;;;4466539;28;20043;-64
2022/08/12 09:27:05;;;;;;;2.38;2.00;;;;;;;;;;4473950;28;20045;-64
2022/08/12 09:29:20;;;;;;;2.20;2.00;;;;;;;;;;4476107;28;20150;-64
2022/08/12 09:31:30;;;;;;;2.45;2.10;;;;;;;;;;4467929;28;20057;-64
2022/08/12 09:33:40;;;;;;;2.00;1.90;;;;;;;;;;4474998;28;20101;-64
2022/08/12 09:35:51;;;;;;;2.28;2.03;;;;;;;;;;4460560;28;20119;-64
2022/08/12 09:38:01;;;;;;;2.13;1.92;;;;;;;;;;4474757;28;20023;-64
2022/08/12 09:40:13;;;;;;;2.17;1.98;;;;;;;;;;4461307;28;20361;-64
2022/08/12 09:47:27;;;;;;;2.15;1.95;;;;;;;;;;4465088;28;20125;-65
2022/08/12 09:49:38;;;;;;;2.50;2.08;;;;;;;;;;4457857;28;20890;-65
2022/08/12 09:51:49;;;;;;;2.38;2.00;;;;;;;;;;4475082;28;20047;-65
2022/08/12 09:54:01;;;;;;;3.20;2.10;;;;;;;;;;4475149;28;20034;-64
2022/08/12 09:56:16;;;;;;;3.00;2.00;;;;;;;;;;4473886;28;20034;-64
2022/08/12 09:58:27;;;;;;;2.45;2.15;;;;;;;;;;4474561;28;20042;-65
2022/08/12 10:00:46;;;;;;;2.30;2.10;;;;;;;;;;4474658;28;20039;-65
2022/08/12 10:03:00;;;;;;;2.30;2.10;;;;;;;;;;4474842;28;21214;-64
2022/08/12 10:05:11;;;;;;;2.25;1.98;;;;;;;;;;4474334;28;20660;-64
2022/08/12 10:07:21;;;;;;;2.20;2.00;;;;;;;;;;4463857;28;20077;-64
2022/08/12 10:09:32;;;;;;;2.20;2.00;;;;;;;;;;4474044;28;20046;-64
2022/08/12 10:14:11;;;;;;;1.98;1.85;;;;;;;;;;4475794;28;20098;-65
2022/08/12 10:16:27;;;;;;;1.80;1.70;;;;;;;;;;4474980;28;21210;-65
2022/08/12 10:18:42;;;;;;;1.98;1.70;;;;;;;;;;4467362;28;20038;-65
2022/08/12 10:20:52;;;;;;;2.03;1.83;;;;;;;;;;4473878;28;20066;-65
2022/08/12 10:23:04;;;;;;;1.98;1.80;;;;;;;;;;4473083;28;20091;-65
2022/08/12 10:30:13;;;;;;;2.10;1.70;;;;;;;;;;4487732;28;20551;-66
2022/08/12 10:32:23;;;;;;;2.55;2.00;;;;;;;;;;4476624;28;20067;-66
2022/08/12 10:34:34;;;;;;;1.90;1.80;;;;;;;;;;4476125;28;20706;-65
2022/08/12 10:36:46;;;;;;;2.40;1.90;;;;;;;;;;4475309;28;20122;-65
2022/08/12 10:38:57;;;;;;;2.63;2.00;;;;;;;;;;4474811;28;20042;-65
2022/08/12 10:43:42;;;;;;;2.08;1.65;;;;;;;;;;4473277;28;20043;-66
2022/08/12 10:45:55;;;;;;;2.20;2.00;;;;;;;;;;4474565;28;20601;-66
2022/08/12 10:48:05;;;;;;;1.90;1.80;;;;;;;;;;4458895;28;20090;-66
2022/08/12 10:50:15;;;;;;;2.13;1.92;;;;;;;;;;4474446;28;20028;-66
2022/08/12 10:52:29;;;;;;;2.10;1.90;;;;;;;;;;4474590;28;20484;-66
2022/08/12 10:54:41;;;;;;;2.10;1.90;;;;;;;;;;4461749;28;20035;-65
2022/08/12 10:56:53;;;;;;;1.98;1.77;;;;;;;;;;4474518;28;20072;-65
2022/08/12 10:59:04;;;;;;;2.53;1.85;;;;;;;;;;4457454;28;20046;-65
2022/08/12 11:01:15;;;;;;;2.17;1.98;;;;;;;;;;4475137;28;20027;-65
2022/08/12 11:03:26;;;;;;;2.10;1.90;;;;;;;;;;4456941;28;20124;-66
2022/08/12 11:05:36;;;;;;;2.10;1.80;;;;;;;;;;4474286;28;20038;-65
2022/08/12 11:07:49;;;;;;;1.80;1.70;;;;;;;;;;4472821;28;20571;-65
2022/08/12 11:10:00;;;;;;;2.10;1.90;;;;;;;;;;4459207;28;20045;-65
2022/08/12 11:12:10;;;;;;;2.08;1.88;;;;;;;;;;4475187;28;20394;-65
2022/08/12 11:14:27;;;;;;;2.08;1.80;;;;;;;;;;4475332;28;20423;-65
2022/08/12 11:16:37;;;;;;;2.20;2.00;;;;;;;;;;4473579;28;20043;-65
2022/08/12 11:18:48;;;;;;;2.55;2.15;;;;;;;;;;4472871;28;20502;-65
2022/08/12 11:20:59;;;;;;;1.75;1.65;;;;;;;;;;4466378;28;20082;-66
2022/08/12 11:23:10;;;;;;;2.15;1.95;;;;;;;;;;4474297;28;20165;-66
2022/08/12 11:25:20;;;;;;;1.75;1.65;;;;;;;;;;4463488;28;20053;-65
2022/08/12 11:27:31;;;;;;;1.90;1.70;;;;;;;;;;4471808;28;20019;-65
2022/08/12 11:29:41;;;;;;;2.22;2.00;;;;;;;;;;4474599;28;20038;-66
2022/08/12 11:31:52;;;;;;;2.00;1.80;;;;;;;;;;4473652;28;20038;-66
2022/08/12 11:34:03;;;;;;;1.75;1.65;;;;;;;;;;4473339;28;20041;-66
2022/08/12 11:36:13;;;;;;;2.03;1.83;;;;;;;;;;4465397;28;20065;-65
2022/08/12 11:38:24;;;;;;;2.00;1.80;;;;;;;;;;4459838;28;20086;-65
2022/08/12 11:40:35;;;;;;;2.78;1.90;;;;;;;;;;4459307;28;20778;-66
2022/08/12 11:42:45;;;;;;;1.80;1.70;;;;;;;;;;4472543;28;20616;-66
2022/08/12 11:44:56;;;;;;;1.88;1.75;;;;;;;;;;4473715;28;20034;-66
2022/08/12 11:47:06;;;;;;;1.77;1.63;;;;;;;;;;4487533;28;20038;-66
2022/08/12 11:49:17;;;;;;;2.00;1.60;;;;;;;;;;4471791;28;20118;-65
2022/08/12 11:51:27;;;;;;;1.92;1.73;;;;;;;;;;4472928;28;20067;-65
2022/08/12 11:53:38;;;;;;;1.67;1.58;;;;;;;;;;4459830;28;20435;-65
2022/08/12 11:55:48;;;;;;;2.00;1.80;;;;;;;;;;4449745;28;20142;-65
2022/08/12 11:57:59;;;;;;;1.85;1.75;;;;;;;;;;4457009;28;20039;-65
2022/08/12 12:00:10;;;;;;;1.83;1.63;;;;;;;;;;4472616;28;20415;-65
2022/08/12 12:02:22;;;;;;;2.10;1.90;;;;;;;;;;4473488;28;20582;-66
2022/08/12 12:04:33;;;;;;;2.25;1.70;;;;;;;;;;4472236;28;20043;-65
2022/08/12 12:06:44;;;;;;;2.03;1.70;;;;;;;;;;4459052;28;20034;-65
2022/08/12 12:08:54;;;;;;;2.05;1.77;;;;;;;;;;4473457;28;20160;-65
2022/08/12 12:11:05;;;;;;;1.73;1.63;;;;;;;;;;4472551;28;20589;-64
2022/08/12 12:13:16;;;;;;;1.98;1.60;;;;;;;;;;4450089;28;20476;-65
2022/08/12 12:15:27;;;;;;;1.70;1.60;;;;;;;;;;4472850;28;20886;-65
2022/08/12 12:17:39;;;;;;;1.60;1.50;;;;;;;;;;4473081;28;20047;-65
2022/08/12 12:19:51;;;;;;;1.83;1.70;;;;;;;;;;4455804;28;20042;-65
2022/08/12 12:22:02;;;;;;;1.85;1.60;;;;;;;;;;4449752;28;20028;-65
2022/08/12 12:24:12;;;;;;;1.70;1.60;;;;;;;;;;4472301;28;20043;-65
2022/08/12 12:26:23;;;;;;;1.85;1.65;;;;;;;;;;4473453;28;20043;-66
2022/08/12 12:28:34;;;;;;;1.60;1.50;;;;;;;;;;4458298;28;20118;-65
2022/08/12 12:30:44;;;;;;;1.70;1.60;;;;;;;;;;4475520;28;20376;-65
2022/08/12 12:32:55;;;;;;;1.73;1.63;;;;;;;;;;4476109;28;20046;-66
2022/08/12 12:35:06;;;;;;;1.90;1.60;;;;;;;;;;4463155;28;20067;-66
2022/08/12 12:37:16;;;;;;;1.77;1.67;;;;;;;;;;4474217;28;20039;-65
2022/08/12 12:39:27;;;;;;;1.60;1.50;;;;;;;;;;4477716;28;20042;-66
2022/08/12 12:41:37;;;;;;;2.60;1.60;;;;;;;;;;4479119;28;20054;-66
2022/08/12 12:43:48;;;;;;;1.70;1.60;;;;;;;;;;4475721;28;20521;-65
2022/08/12 12:45:58;;;;;;;1.85;1.55;;;;;;;;;;4475967;28;20039;-66
2022/08/12 12:48:13;;;;;;;1.52;1.42;;;;;;;;;;4475666;28;20041;-66
2022/08/12 12:50:26;;;;;;;1.55;1.45;;;;;;;;;;4458916;28;20613;-66
2022/08/12 12:52:36;;;;;;;1.60;1.50;;;;;;;;;;4475827;28;20030;-66
2022/08/12 12:54:51;;;;;;;1.63;1.50;;;;;;;;;;4475991;28;20773;-66
2022/08/12 12:57:01;;;;;;;1.50;1.40;;;;;;;;;;4476076;28;20136;-67
2022/08/12 12:59:12;;;;;;;1.55;1.45;;;;;;;;;;4475968;28;20578;-66
2022/08/12 13:01:26;;;;;;;1.40;1.30;;;;;;;;;;4460613;28;20062;-66
2022/08/12 13:03:36;;;;;;;1.75;1.63;;;;;;;;;;4475723;28;20046;-66
2022/08/12 13:05:48;;;;;;;1.70;1.40;;;;;;;;;;4462419;28;20542;-67
2022/08/12 13:07:59;;;;;;;1.60;1.50;;;;;;;;;;4476173;28;20039;-66
2022/08/12 13:10:10;;;;;;;1.95;1.52;;;;;;;;;;4491168;28;20187;-66
2022/08/12 13:12:21;;;;;;;1.60;1.50;;;;;;;;;;4473524;28;20039;-66
2022/08/12 13:14:32;;;;;;;1.40;1.30;;;;;;;;;;4474652;28;20035;-66
2022/08/12 13:16:43;;;;;;;1.60;1.50;;;;;;;;;;4474436;28;20047;-66
2022/08/12 13:18:54;;;;;;;1.70;1.48;;;;;;;;;;4474135;28;20030;-66
2022/08/12 13:21:05;;;;;;;1.50;1.40;;;;;;;;;;4453476;28;20035;-66
2022/08/12 13:23:16;;;;;;;1.48;1.38;;;;;;;;;;4447549;28;20150;-66
2022/08/12 13:25:27;;;;;;;2.03;1.45;;;;;;;;;;4474722;28;20054;-68
2022/08/12 13:27:40;;;;;;;2.13;1.48;;;;;;;;;;4475535;28;20046;-68
2022/08/12 13:29:50;;;;;;;2.58;1.40;;;;;;;;;;4474747;28;20494;-68
2022/08/12 13:32:01;;;;;;;2.10;1.55;;;;;;;;;;4476225;28;20076;-66
2022/08/12 13:34:14;;;;;;;2.13;1.63;;;;;;;;;;4474384;28;20050;-66
2022/08/12 13:36:27;;;;;;;2.67;1.85;;;;;;;;;;4457020;28;20043;-69
2022/08/12 13:38:52;;;;;;;1.83;1.40;;;;;;;;;;4475373;28;20034;-64
2022/08/12 13:41:08;;;;;;;1.50;1.40;;;;;;;;;;4468161;28;20039;-66
2022/08/12 13:43:18;;;;;;;1.52;1.40;;;;;;;;;;4456977;28;20700;-66
2022/08/12 13:45:30;;;;;;;1.38;1.27;;;;;;;;;;4467233;28;20094;-66
2022/08/12 13:47:55;;;;;;;4.05;1.50;;;;;;;;;;4467753;28;20743;-66
2022/08/12 13:50:06;;;;;;;2.38;1.50;;;;;;;;;;4475755;28;20141;-64
2022/08/12 13:52:18;;;;;;;2.80;1.63;;;;;;;;;;4474063;28;20491;-67
2022/08/12 13:54:28;;;;;;;1.20;0.98;;;;;;;;;;4473437;28;20067;-66
2022/08/12 13:56:39;;;;;;;1.77;1.30;;;;;;;;;;4475053;28;20062;-64
2022/08/12 13:58:49;;;;;;;1.23;1.10;;;;;;;;;;4475541;28;20613;-63
2022/08/12 14:01:04;;;;;;;1.50;1.40;;;;;;;;;;4459566;28;20551;-62
2022/08/12 14:03:15;;;;;;;1.77;1.45;;;;;;;;;;4473507;28;20045;-66
2022/08/12 14:05:26;;;;;;;1.13;1.00;;;;;;;;;;4472423;28;20074;-71
2022/08/12 14:07:59;;;;;;;1.55;1.20;;;;;;;;;;4474261;28;20047;-68
2022/08/12 14:12:39;;;;;;;1.67;1.40;;;;;;;;;;4474442;28;20286;-63
2022/08/12 14:14:49;;;;;;;2.45;1.77;;;;;;;;;;4473925;28;20089;-65
2022/08/12 14:17:01;;;;;;;2.50;2.13;;;;;;;;;;4473240;28;20492;-60
2022/08/12 14:19:11;;;;;;;2.55;1.77;;;;;;;;;;4474952;28;20085;-61
2022/08/12 14:21:22;;;;;;;2.50;1.55;;;;;;;;;;4473935;28;20038;-60
2022/08/12 14:23:37;;;;;;;2.10;1.85;;;;;;;;;;4473848;28;20038;-61
2022/08/12 14:25:49;;;;;;;1.80;1.50;;;;;;;;;;4466606;28;21243;-61
2022/08/12 14:28:10;;;;;;;3.03;1.60;;;;;;;;;;4473706;28;20038;-61
2022/08/12 14:30:22;;;;;;;2.85;1.77;;;;;;;;;;4474134;28;20026;-61
2022/08/12 14:32:33;;;;;;;2.20;1.77;;;;;;;;;;4474298;28;20609;-61
2022/08/12 14:34:50;;;;;;;2.92;1.70;;;;;;;;;;4459305;28;20047;-63
2022/08/12 14:37:01;;;;;;;;;;;;;;;;;;4474537;28;20758;-63
2022/08/12 14:39:11;;;;;;;2.40;1.95;;;;;;;;;;4474583;28;19922;-63
2022/08/12 14:41:25;;;;;;;4.50;1.70;;;;;;;;;;4474523;28;20487;-63
2022/08/12 14:43:39;;;;;;;2.20;1.55;;;;;;;;;;4473858;28;20609;-63
2022/08/12 14:45:49;;;;;;;1.58;1.48;;;;;;;;;;4473281;28;20066;-63
2022/08/12 14:48:00;;;;;;;3.88;1.42;;;;;;;;;;4474599;28;20053;-63
2022/08/12 14:50:11;;;;;;;2.03;1.60;;;;;;;;;;4474736;28;20038;-64
2022/08/12 14:52:23;;;;;;;1.70;1.50;;;;;;;;;;4472463;28;20038;-63
2022/08/12 14:54:35;;;;;;;1.88;1.58;;;;;;;;;;4471371;28;20066;-63
2022/08/12 14:56:49;;;;;;;1.85;1.55;;;;;;;;;;4473369;28;20085;-63
2022/08/12 15:01:38;;;;;;;3.17;1.60;;;;;;;;;;4473943;28;20035;-62
2022/08/12 15:03:49;;;;;;;2.00;1.40;;;;;;;;;;4458877;28;20049;-63
2022/08/12 15:06:02;;;;;;;2.22;1.70;;;;;;;;;;4456246;28;20070;-63